sensor_id;sensor_type;location;lat;lon;timestamp;temperature;humidity
6964;DHT22;3522;50.856;7.278;2023-04-03T00:02:00;3.60;99.90
6964;DHT22;3522;50.856;7.278;2023-04-03T00:04:26;3.60;99.90
6964;DHT22;3522;50.856;7.278;2023-04-03T00:06:53;3.60;99.90
6964;DHT22;3522;50.856;7.278;2023-04-03T00:09:19;3.50;99.90
6964;DHT22;3522;50.856;7.278;2023-04-03T00:11:46;3.50;99.90
6964;DHT22;3522;50.856;7.278;2023-04-03T00:14:12;3.50;99.90
6964;DHT22;3522;50.856;7.278;2023-04-03T00:16:40;3.50;99.90
6964;DHT22;3522;50.856;7.278;2023-04-03T00:19:07;3.50;99.90
6964;DHT22;3522;50.856;7.278;2023-04-03T00:21:33;3.60;99.90
6964;DHT22;3522;50.856;7.278;2023-04-03T00:24:00;3.60;99.90
6964;DHT22;3522;50.856;7.278;2023-04-03T00:26:27;3.60;99.90
6964;DHT22;3522;50.856;7.278;2023-04-03T00:28:54;3.60;99.90
6964;DHT22;3522;50.856;7.278;2023-04-03T00:31:21;3.60;99.90
6964;DHT22;3522;50.856;7.278;2023-04-03T00:33:49;3.60;99.90
6964;DHT22;3522;50.856;7.278;2023-04-03T00:36:16;3.60;99.90
6964;DHT22;3522;50.856;7.278;2023-04-03T00:38:42;3.50;99.90
6964;DHT22;3522;50.856;7.278;2023-04-03T00:41:09;3.50;99.90
6964;DHT22;3522;50.856;7.278;2023-04-03T00:43:35;3.50;99.90
6964;DHT22;3522;50.856;7.278;2023-04-03T00:46:02;3.50;99.90
6964;DHT22;3522;50.856;7.278;2023-04-03T00:48:29;3.60;99.90
6964;DHT22;3522;50.856;7.278;2023-04-03T00:50:58;3.60;99.90
6964;DHT22;3522;50.856;7.278;2023-04-03T00:53:26;3.60;99.90
6964;DHT22;3522;50.856;7.278;2023-04-03T00:55:54;3.60;99.90
6964;DHT22;3522;50.856;7.278;2023-04-03T00:58:21;3.60;99.90
6964;DHT22;3522;50.856;7.278;2023-04-03T01:00:54;3.60;99.90
6964;DHT22;3522;50.856;7.278;2023-04-03T01:03:22;3.60;99.90
6964;DHT22;3522;50.856;7.278;2023-04-03T01:05:49;3.60;99.90
6964;DHT22;3522;50.856;7.278;2023-04-03T01:08:17;3.60;99.90
6964;DHT22;3522;50.856;7.278;2023-04-03T01:10:44;3.60;99.90
6964;DHT22;3522;50.856;7.278;2023-04-03T01:13:18;3.60;99.90
6964;DHT22;3522;50.856;7.278;2023-04-03T01:15:45;3.60;99.90
6964;DHT22;3522;50.856;7.278;2023-04-03T01:18:12;3.60;99.90
6964;DHT22;3522;50.856;7.278;2023-04-03T01:20:50;3.60;99.90
6964;DHT22;3522;50.856;7.278;2023-04-03T01:23:32;3.60;99.90
6964;DHT22;3522;50.856;7.278;2023-04-03T01:26:00;3.60;99.90
6964;DHT22;3522;50.856;7.278;2023-04-03T01:28:27;3.60;99.90
6964;DHT22;3522;50.856;7.278;2023-04-03T01:30:56;3.60;99.90
6964;DHT22;3522;50.856;7.278;2023-04-03T01:33:26;3.60;99.90
6964;DHT22;3522;50.856;7.278;2023-04-03T01:35:52;3.60;99.90
6964;DHT22;3522;50.856;7.278;2023-04-03T01:38:19;3.60;99.90
6964;DHT22;3522;50.856;7.278;2023-04-03T01:40:46;3.50;99.90
6964;DHT22;3522;50.856;7.278;2023-04-03T01:43:12;3.50;99.90
6964;DHT22;3522;50.856;7.278;2023-04-03T01:45:39;3.50;99.90
6964;DHT22;3522;50.856;7.278;2023-04-03T01:48:05;3.50;99.90
6964;DHT22;3522;50.856;7.278;2023-04-03T01:50:33;3.40;99.90
6964;DHT22;3522;50.856;7.278;2023-04-03T01:53:00;3.40;99.90
6964;DHT22;3522;50.856;7.278;2023-04-03T01:55:26;3.40;99.90
6964;DHT22;3522;50.856;7.278;2023-04-03T01:57:53;3.40;99.90
6964;DHT22;3522;50.856;7.278;2023-04-03T02:00:20;3.40;99.90
6964;DHT22;3522;50.856;7.278;2023-04-03T02:02:46;3.40;99.90
6964;DHT22;3522;50.856;7.278;2023-04-03T02:05:13;3.40;99.90
6964;DHT22;3522;50.856;7.278;2023-04-03T02:07:41;3.30;99.90
6964;DHT22;3522;50.856;7.278;2023-04-03T02:10:08;3.30;99.90
6964;DHT22;3522;50.856;7.278;2023-04-03T02:12:34;3.30;99.90
6964;DHT22;3522;50.856;7.278;2023-04-03T02:15:01;3.30;99.90
6964;DHT22;3522;50.856;7.278;2023-04-03T02:17:27;3.20;99.90
6964;DHT22;3522;50.856;7.278;2023-04-03T02:19:54;3.20;99.90
6964;DHT22;3522;50.856;7.278;2023-04-03T02:22:20;3.20;99.90
6964;DHT22;3522;50.856;7.278;2023-04-03T02:24:48;3.20;99.90
6964;DHT22;3522;50.856;7.278;2023-04-03T02:27:16;3.10;99.90
6964;DHT22;3522;50.856;7.278;2023-04-03T02:29:43;3.10;99.90
6964;DHT22;3522;50.856;7.278;2023-04-03T02:32:10;3.10;99.90
6964;DHT22;3522;50.856;7.278;2023-04-03T02:34:36;3.10;99.90
6964;DHT22;3522;50.856;7.278;2023-04-03T02:37:03;3.00;99.90
6964;DHT22;3522;50.856;7.278;2023-04-03T02:39:29;3.00;99.90
6964;DHT22;3522;50.856;7.278;2023-04-03T02:41:57;3.00;99.90
6964;DHT22;3522;50.856;7.278;2023-04-03T02:44:24;2.90;99.90
6964;DHT22;3522;50.856;7.278;2023-04-03T02:46:50;2.90;99.90
6964;DHT22;3522;50.856;7.278;2023-04-03T02:49:17;2.90;99.90
6964;DHT22;3522;50.856;7.278;2023-04-03T02:51:44;2.90;99.90
6964;DHT22;3522;50.856;7.278;2023-04-03T02:54:11;2.90;99.90
6964;DHT22;3522;50.856;7.278;2023-04-03T02:56:37;2.90;99.90
6964;DHT22;3522;50.856;7.278;2023-04-03T02:59:05;2.90;99.90
6964;DHT22;3522;50.856;7.278;2023-04-03T03:01:32;2.90;99.90
6964;DHT22;3522;50.856;7.278;2023-04-03T03:03:59;2.90;99.90
6964;DHT22;3522;50.856;7.278;2023-04-03T03:06:26;2.90;99.90
6964;DHT22;3522;50.856;7.278;2023-04-03T03:08:53;2.80;99.90
6964;DHT22;3522;50.856;7.278;2023-04-03T03:11:20;2.80;99.90
6964;DHT22;3522;50.856;7.278;2023-04-03T03:13:46;2.80;99.90
6964;DHT22;3522;50.856;7.278;2023-04-03T03:16:14;2.70;99.90
6964;DHT22;3522;50.856;7.278;2023-04-03T03:18:41;2.70;99.90
6964;DHT22;3522;50.856;7.278;2023-04-03T03:21:08;2.80;99.90
6964;DHT22;3522;50.856;7.278;2023-04-03T03:23:35;2.70;99.90
6964;DHT22;3522;50.856;7.278;2023-04-03T03:26:02;2.70;99.90
6964;DHT22;3522;50.856;7.278;2023-04-03T03:28:29;2.70;99.90
6964;DHT22;3522;50.856;7.278;2023-04-03T03:30:56;2.70;99.90
6964;DHT22;3522;50.856;7.278;2023-04-03T03:33:24;2.60;99.90
6964;DHT22;3522;50.856;7.278;2023-04-03T03:35:51;2.60;99.90
6964;DHT22;3522;50.856;7.278;2023-04-03T03:38:18;2.60;99.90
6964;DHT22;3522;50.856;7.278;2023-04-03T03:40:46;2.60;99.90
6964;DHT22;3522;50.856;7.278;2023-04-03T03:43:13;2.60;99.90
6964;DHT22;3522;50.856;7.278;2023-04-03T03:45:39;2.50;99.90
6964;DHT22;3522;50.856;7.278;2023-04-03T03:48:06;2.50;99.90
6964;DHT22;3522;50.856;7.278;2023-04-03T03:50:34;2.50;99.90
6964;DHT22;3522;50.856;7.278;2023-04-03T03:53:01;2.50;99.90
6964;DHT22;3522;50.856;7.278;2023-04-03T03:55:27;2.50;99.90
6964;DHT22;3522;50.856;7.278;2023-04-03T03:57:54;2.40;99.90
6964;DHT22;3522;50.856;7.278;2023-04-03T04:00:20;2.40;99.90
6964;DHT22;3522;50.856;7.278;2023-04-03T04:02:47;2.40;99.90
6964;DHT22;3522;50.856;7.278;2023-04-03T04:05:13;2.40;99.90
6964;DHT22;3522;50.856;7.278;2023-04-03T04:07:41;2.40;99.90
6964;DHT22;3522;50.856;7.278;2023-04-03T04:10:08;2.30;99.90
6964;DHT22;3522;50.856;7.278;2023-04-03T04:12:35;2.30;99.90
6964;DHT22;3522;50.856;7.278;2023-04-03T04:15:02;2.30;99.90
6964;DHT22;3522;50.856;7.278;2023-04-03T04:17:28;2.30;99.90
6964;DHT22;3522;50.856;7.278;2023-04-03T04:19:55;2.30;99.90
6964;DHT22;3522;50.856;7.278;2023-04-03T04:22:21;2.30;99.90
6964;DHT22;3522;50.856;7.278;2023-04-03T04:24:49;2.30;99.90
6964;DHT22;3522;50.856;7.278;2023-04-03T04:27:16;2.30;99.90
6964;DHT22;3522;50.856;7.278;2023-04-03T04:29:42;2.20;99.90
6964;DHT22;3522;50.856;7.278;2023-04-03T04:32:09;2.20;99.90
6964;DHT22;3522;50.856;7.278;2023-04-03T04:34:36;2.10;99.90
6964;DHT22;3522;50.856;7.278;2023-04-03T04:37:02;2.10;99.90
6964;DHT22;3522;50.856;7.278;2023-04-03T04:39:29;2.10;99.90
6964;DHT22;3522;50.856;7.278;2023-04-03T04:41:57;2.00;99.90
6964;DHT22;3522;50.856;7.278;2023-04-03T04:44:23;2.00;99.90
6964;DHT22;3522;50.856;7.278;2023-04-03T04:46:50;2.00;99.90
6964;DHT22;3522;50.856;7.278;2023-04-03T04:49:16;1.90;99.90
6964;DHT22;3522;50.856;7.278;2023-04-03T04:51:43;1.90;99.90
6964;DHT22;3522;50.856;7.278;2023-04-03T04:54:09;1.90;99.90
6964;DHT22;3522;50.856;7.278;2023-04-03T04:56:36;1.90;99.90
6964;DHT22;3522;50.856;7.278;2023-04-03T04:59:04;1.90;99.90
6964;DHT22;3522;50.856;7.278;2023-04-03T05:01:30;1.80;99.90
6964;DHT22;3522;50.856;7.278;2023-04-03T05:03:57;1.80;99.90
6964;DHT22;3522;50.856;7.278;2023-04-03T05:06:24;1.80;99.90
6964;DHT22;3522;50.856;7.278;2023-04-03T05:08:50;1.90;99.90
6964;DHT22;3522;50.856;7.278;2023-04-03T05:11:17;1.80;99.90
6964;DHT22;3522;50.856;7.278;2023-04-03T05:13:43;1.80;99.90
6964;DHT22;3522;50.856;7.278;2023-04-03T05:16:11;1.80;99.90
6964;DHT22;3522;50.856;7.278;2023-04-03T05:18:38;1.80;99.90
6964;DHT22;3522;50.856;7.278;2023-04-03T05:21:04;1.80;99.90
6964;DHT22;3522;50.856;7.278;2023-04-03T05:23:31;1.80;99.90
6964;DHT22;3522;50.856;7.278;2023-04-03T05:25:57;1.80;99.90
6964;DHT22;3522;50.856;7.278;2023-04-03T05:28:24;1.80;99.90
6964;DHT22;3522;50.856;7.278;2023-04-03T05:30:54;1.80;99.90
6964;DHT22;3522;50.856;7.278;2023-04-03T05:33:23;1.80;99.90
6964;DHT22;3522;50.856;7.278;2023-04-03T05:35:49;1.80;99.90
6964;DHT22;3522;50.856;7.278;2023-04-03T05:38:16;1.80;99.90
6964;DHT22;3522;50.856;7.278;2023-04-03T05:40:42;1.80;99.90
6964;DHT22;3522;50.856;7.278;2023-04-03T05:43:09;1.80;99.90
6964;DHT22;3522;50.856;7.278;2023-04-03T05:45:36;1.90;99.90
6964;DHT22;3522;50.856;7.278;2023-04-03T05:48:02;1.90;99.90
6964;DHT22;3522;50.856;7.278;2023-04-03T05:50:30;1.90;99.90
6964;DHT22;3522;50.856;7.278;2023-04-03T05:52:57;2.00;99.90
6964;DHT22;3522;50.856;7.278;2023-04-03T05:55:24;2.00;99.90
6964;DHT22;3522;50.856;7.278;2023-04-03T05:57:50;2.00;99.90
6964;DHT22;3522;50.856;7.278;2023-04-03T06:00:17;2.00;99.90
6964;DHT22;3522;50.856;7.278;2023-04-03T06:02:44;2.00;99.90
6964;DHT22;3522;50.856;7.278;2023-04-03T06:05:11;2.00;99.90
6964;DHT22;3522;50.856;7.278;2023-04-03T06:07:39;2.10;99.90
6964;DHT22;3522;50.856;7.278;2023-04-03T06:10:07;2.20;99.90
6964;DHT22;3522;50.856;7.278;2023-04-03T06:12:34;2.20;99.90
6964;DHT22;3522;50.856;7.278;2023-04-03T06:15:00;2.20;99.90
6964;DHT22;3522;50.856;7.278;2023-04-03T06:17:27;2.20;99.90
6964;DHT22;3522;50.856;7.278;2023-04-03T06:19:54;2.20;99.90
6964;DHT22;3522;50.856;7.278;2023-04-03T06:22:23;2.20;99.90
6964;DHT22;3522;50.856;7.278;2023-04-03T06:24:52;2.30;99.90
6964;DHT22;3522;50.856;7.278;2023-04-03T06:27:18;2.30;99.90
6964;DHT22;3522;50.856;7.278;2023-04-03T06:29:45;2.40;99.90
6964;DHT22;3522;50.856;7.278;2023-04-03T06:32:12;2.40;99.90
6964;DHT22;3522;50.856;7.278;2023-04-03T06:34:38;2.50;99.90
6964;DHT22;3522;50.856;7.278;2023-04-03T06:37:05;2.50;99.90
6964;DHT22;3522;50.856;7.278;2023-04-03T06:39:32;2.50;99.90
6964;DHT22;3522;50.856;7.278;2023-04-03T06:42:00;2.60;99.90
6964;DHT22;3522;50.856;7.278;2023-04-03T06:44:26;2.70;99.90
6964;DHT22;3522;50.856;7.278;2023-04-03T06:46:53;2.90;99.90
6964;DHT22;3522;50.856;7.278;2023-04-03T06:49:19;3.20;99.90
6964;DHT22;3522;50.856;7.278;2023-04-03T06:51:46;3.50;99.90
6964;DHT22;3522;50.856;7.278;2023-04-03T06:54:13;3.80;99.90
6964;DHT22;3522;50.856;7.278;2023-04-03T06:56:40;4.00;99.90
6964;DHT22;3522;50.856;7.278;2023-04-03T06:59:09;4.30;99.90
6964;DHT22;3522;50.856;7.278;2023-04-03T07:01:35;4.60;99.90
6964;DHT22;3522;50.856;7.278;2023-04-03T07:04:02;4.80;99.90
6964;DHT22;3522;50.856;7.278;2023-04-03T07:06:29;5.20;99.90
6964;DHT22;3522;50.856;7.278;2023-04-03T07:08:57;5.10;99.90
6964;DHT22;3522;50.856;7.278;2023-04-03T07:11:24;5.30;99.90
6964;DHT22;3522;50.856;7.278;2023-04-03T07:13:51;5.50;99.90
6964;DHT22;3522;50.856;7.278;2023-04-03T07:16:19;5.50;99.90
6964;DHT22;3522;50.856;7.278;2023-04-03T07:18:46;5.50;99.90
6964;DHT22;3522;50.856;7.278;2023-04-03T07:21:13;5.60;99.90
6964;DHT22;3522;50.856;7.278;2023-04-03T07:23:39;5.80;99.90
6964;DHT22;3522;50.856;7.278;2023-04-03T07:26:06;5.80;99.90
6964;DHT22;3522;50.856;7.278;2023-04-03T07:28:33;6.00;99.90
6964;DHT22;3522;50.856;7.278;2023-04-03T07:31:00;6.00;99.90
6964;DHT22;3522;50.856;7.278;2023-04-03T07:33:29;6.20;99.90
6964;DHT22;3522;50.856;7.278;2023-04-03T07:35:56;6.40;99.90
6964;DHT22;3522;50.856;7.278;2023-04-03T07:38:22;6.30;99.90
6964;DHT22;3522;50.856;7.278;2023-04-03T07:40:50;6.30;99.90
6964;DHT22;3522;50.856;7.278;2023-04-03T07:43:18;6.00;99.90
6964;DHT22;3522;50.856;7.278;2023-04-03T07:45:45;6.00;99.90
6964;DHT22;3522;50.856;7.278;2023-04-03T07:48:14;5.80;99.90
6964;DHT22;3522;50.856;7.278;2023-04-03T07:50:42;5.90;99.90
6964;DHT22;3522;50.856;7.278;2023-04-03T07:53:09;5.90;99.90
6964;DHT22;3522;50.856;7.278;2023-04-03T07:55:36;6.10;99.90
6964;DHT22;3522;50.856;7.278;2023-04-03T07:58:08;6.40;99.90
6964;DHT22;3522;50.856;7.278;2023-04-03T08:00:35;6.80;99.90
6964;DHT22;3522;50.856;7.278;2023-04-03T08:03:01;7.00;99.90
6964;DHT22;3522;50.856;7.278;2023-04-03T08:05:28;7.30;99.90
6964;DHT22;3522;50.856;7.278;2023-04-03T08:07:56;7.50;99.90
6964;DHT22;3522;50.856;7.278;2023-04-03T08:10:22;7.40;99.90
6964;DHT22;3522;50.856;7.278;2023-04-03T08:12:49;7.30;99.90
6964;DHT22;3522;50.856;7.278;2023-04-03T08:15:16;7.10;99.90
6964;DHT22;3522;50.856;7.278;2023-04-03T08:17:43;7.10;99.90
6964;DHT22;3522;50.856;7.278;2023-04-03T08:20:10;7.00;99.90
6964;DHT22;3522;50.856;7.278;2023-04-03T08:22:37;7.10;99.90
6964;DHT22;3522;50.856;7.278;2023-04-03T08:25:05;6.90;99.90
6964;DHT22;3522;50.856;7.278;2023-04-03T08:27:32;6.70;99.90
6964;DHT22;3522;50.856;7.278;2023-04-03T08:29:58;6.50;99.90
6964;DHT22;3522;50.856;7.278;2023-04-03T08:32:25;6.60;99.90
6964;DHT22;3522;50.856;7.278;2023-04-03T08:34:52;7.00;99.90
6964;DHT22;3522;50.856;7.278;2023-04-03T08:37:19;7.00;99.90
6964;DHT22;3522;50.856;7.278;2023-04-03T08:39:45;7.20;99.90
6964;DHT22;3522;50.856;7.278;2023-04-03T08:42:16;7.40;99.90
6964;DHT22;3522;50.856;7.278;2023-04-03T08:44:46;7.30;99.90
6964;DHT22;3522;50.856;7.278;2023-04-03T08:47:17;7.50;99.90
6964;DHT22;3522;50.856;7.278;2023-04-03T08:49:45;7.60;99.90
6964;DHT22;3522;50.856;7.278;2023-04-03T08:52:17;7.80;99.90
6964;DHT22;3522;50.856;7.278;2023-04-03T08:54:48;7.90;99.90
6964;DHT22;3522;50.856;7.278;2023-04-03T08:57:16;7.90;99.90
6964;DHT22;3522;50.856;7.278;2023-04-03T08:59:43;7.90;99.90
6964;DHT22;3522;50.856;7.278;2023-04-03T09:02:16;7.50;99.90
6964;DHT22;3522;50.856;7.278;2023-04-03T09:04:45;7.80;99.90
6964;DHT22;3522;50.856;7.278;2023-04-03T09:07:13;7.80;99.90
6964;DHT22;3522;50.856;7.278;2023-04-03T09:09:42;7.70;99.90
6964;DHT22;3522;50.856;7.278;2023-04-03T09:12:14;8.00;99.90
6964;DHT22;3522;50.856;7.278;2023-04-03T09:14:44;7.90;99.90
6964;DHT22;3522;50.856;7.278;2023-04-03T09:17:14;7.90;99.90
6964;DHT22;3522;50.856;7.278;2023-04-03T09:19:45;7.90;99.90
6964;DHT22;3522;50.856;7.278;2023-04-03T09:22:13;8.00;99.90
6964;DHT22;3522;50.856;7.278;2023-04-03T09:24:43;8.40;99.90
6964;DHT22;3522;50.856;7.278;2023-04-03T09:27:10;8.50;99.90
6964;DHT22;3522;50.856;7.278;2023-04-03T09:29:38;8.60;99.90
6964;DHT22;3522;50.856;7.278;2023-04-03T09:32:17;8.70;99.90
6964;DHT22;3522;50.856;7.278;2023-04-03T09:34:44;8.70;99.20
6964;DHT22;3522;50.856;7.278;2023-04-03T09:37:11;8.70;98.60
6964;DHT22;3522;50.856;7.278;2023-04-03T09:39:49;8.70;99.00
6964;DHT22;3522;50.856;7.278;2023-04-03T09:42:16;8.80;99.40
6964;DHT22;3522;50.856;7.278;2023-04-03T09:44:48;8.80;97.60
6964;DHT22;3522;50.856;7.278;2023-04-03T09:47:23;8.60;98.10
6964;DHT22;3522;50.856;7.278;2023-04-03T09:49:50;8.50;96.40
6964;DHT22;3522;50.856;7.278;2023-04-03T09:52:18;8.80;97.10
6964;DHT22;3522;50.856;7.278;2023-04-03T09:54:44;9.00;96.30
6964;DHT22;3522;50.856;7.278;2023-04-03T09:57:12;9.20;96.10
6964;DHT22;3522;50.856;7.278;2023-04-03T09:59:41;9.40;96.30
6964;DHT22;3522;50.856;7.278;2023-04-03T10:02:21;9.40;95.70
6964;DHT22;3522;50.856;7.278;2023-04-03T10:04:48;9.80;96.00
6964;DHT22;3522;50.856;7.278;2023-04-03T10:07:32;9.90;93.50
6964;DHT22;3522;50.856;7.278;2023-04-03T10:09:59;9.80;91.70
6964;DHT22;3522;50.856;7.278;2023-04-03T10:12:26;9.70;92.80
6964;DHT22;3522;50.856;7.278;2023-04-03T10:14:54;9.60;91.80
6964;DHT22;3522;50.856;7.278;2023-04-03T10:17:24;9.80;91.70
6964;DHT22;3522;50.856;7.278;2023-04-03T10:19:55;9.60;88.10
6964;DHT22;3522;50.856;7.278;2023-04-03T10:22:25;9.00;90.00
6964;DHT22;3522;50.856;7.278;2023-04-03T10:25:00;8.60;89.40
6964;DHT22;3522;50.856;7.278;2023-04-03T10:27:32;8.80;90.80
6964;DHT22;3522;50.856;7.278;2023-04-03T10:30:00;9.10;91.10
6964;DHT22;3522;50.856;7.278;2023-04-03T10:32:40;9.10;90.20
6964;DHT22;3522;50.856;7.278;2023-04-03T10:35:10;9.40;91.70
6964;DHT22;3522;50.856;7.278;2023-04-03T10:37:45;9.70;91.80
6964;DHT22;3522;50.856;7.278;2023-04-03T10:40:21;9.90;90.10
6964;DHT22;3522;50.856;7.278;2023-04-03T10:42:50;9.40;88.30
6964;DHT22;3522;50.856;7.278;2023-04-03T10:45:20;9.30;88.20
6964;DHT22;3522;50.856;7.278;2023-04-03T10:47:51;9.20;89.40
6964;DHT22;3522;50.856;7.278;2023-04-03T10:50:29;9.30;90.40
6964;DHT22;3522;50.856;7.278;2023-04-03T10:53:00;9.60;90.40
6964;DHT22;3522;50.856;7.278;2023-04-03T10:55:31;9.30;86.10
6964;DHT22;3522;50.856;7.278;2023-04-03T10:58:00;9.60;90.40
6964;DHT22;3522;50.856;7.278;2023-04-03T11:00:29;9.90;88.80
6964;DHT22;3522;50.856;7.278;2023-04-03T11:02:59;9.90;84.10
6964;DHT22;3522;50.856;7.278;2023-04-03T11:05:29;9.80;85.30
6964;DHT22;3522;50.856;7.278;2023-04-03T11:07:59;9.90;82.80
6964;DHT22;3522;50.856;7.278;2023-04-03T11:10:30;10.00;86.70
6964;DHT22;3522;50.856;7.278;2023-04-03T11:12:58;10.10;86.00
6964;DHT22;3522;50.856;7.278;2023-04-03T11:15:29;10.30;84.50
6964;DHT22;3522;50.856;7.278;2023-04-03T11:17:58;10.30;85.10
6964;DHT22;3522;50.856;7.278;2023-04-03T11:20:28;10.60;85.20
6964;DHT22;3522;50.856;7.278;2023-04-03T11:22:58;10.60;82.20
6964;DHT22;3522;50.856;7.278;2023-04-03T11:25:26;10.60;80.80
6964;DHT22;3522;50.856;7.278;2023-04-03T11:27:56;10.40;81.50
6964;DHT22;3522;50.856;7.278;2023-04-03T11:30:24;10.60;82.20
6964;DHT22;3522;50.856;7.278;2023-04-03T11:33:04;10.50;77.80
6964;DHT22;3522;50.856;7.278;2023-04-03T11:35:35;10.70;77.60
6964;DHT22;3522;50.856;7.278;2023-04-03T11:38:02;10.80;77.90
6964;DHT22;3522;50.856;7.278;2023-04-03T11:40:31;10.90;74.80
6964;DHT22;3522;50.856;7.278;2023-04-03T11:43:02;11.10;75.50
6964;DHT22;3522;50.856;7.278;2023-04-03T11:45:34;11.30;71.70
6964;DHT22;3522;50.856;7.278;2023-04-03T11:48:03;11.30;70.40
6964;DHT22;3522;50.856;7.278;2023-04-03T11:50:31;11.40;69.70
6964;DHT22;3522;50.856;7.278;2023-04-03T11:53:00;11.00;69.00
6964;DHT22;3522;50.856;7.278;2023-04-03T11:55:41;10.90;67.80
6964;DHT22;3522;50.856;7.278;2023-04-03T11:58:13;10.80;68.10
6964;DHT22;3522;50.856;7.278;2023-04-03T12:00:47;10.70;71.30
6964;DHT22;3522;50.856;7.278;2023-04-03T12:08:49;10.80;67.90
6964;DHT22;3522;50.856;7.278;2023-04-03T12:11:21;10.90;69.40
6964;DHT22;3522;50.856;7.278;2023-04-03T12:14:01;11.20;68.40
6964;DHT22;3522;50.856;7.278;2023-04-03T12:16:30;11.10;68.50
6964;DHT22;3522;50.856;7.278;2023-04-03T12:18:59;10.80;67.00
6964;DHT22;3522;50.856;7.278;2023-04-03T12:24:24;11.10;65.80
6964;DHT22;3522;50.856;7.278;2023-04-03T12:27:00;11.10;63.10
6964;DHT22;3522;50.856;7.278;2023-04-03T12:29:29;11.30;67.90
6964;DHT22;3522;50.856;7.278;2023-04-03T12:32:03;11.10;63.10
6964;DHT22;3522;50.856;7.278;2023-04-03T12:34:40;11.20;66.00
6964;DHT22;3522;50.856;7.278;2023-04-03T12:37:15;11.70;69.20
6964;DHT22;3522;50.856;7.278;2023-04-03T12:39:47;11.40;63.40
6964;DHT22;3522;50.856;7.278;2023-04-03T12:42:18;11.50;62.70
6964;DHT22;3522;50.856;7.278;2023-04-03T12:44:48;11.60;62.40
6964;DHT22;3522;50.856;7.278;2023-04-03T12:47:22;11.30;64.20
6964;DHT22;3522;50.856;7.278;2023-04-03T12:49:49;11.20;64.60
6964;DHT22;3522;50.856;7.278;2023-04-03T12:52:20;11.70;69.60
6964;DHT22;3522;50.856;7.278;2023-04-03T12:54:50;11.20;66.70
6964;DHT22;3522;50.856;7.278;2023-04-03T12:57:17;11.10;69.40
6964;DHT22;3522;50.856;7.278;2023-04-03T12:59:44;11.50;70.30
6964;DHT22;3522;50.856;7.278;2023-04-03T13:04:57;12.00;70.10
6964;DHT22;3522;50.856;7.278;2023-04-03T13:07:25;11.90;66.90
6964;DHT22;3522;50.856;7.278;2023-04-03T13:09:59;11.50;67.10
6964;DHT22;3522;50.856;7.278;2023-04-03T13:12:26;11.50;69.80
6964;DHT22;3522;50.856;7.278;2023-04-03T13:14:52;11.80;74.60
6964;DHT22;3522;50.856;7.278;2023-04-03T13:17:20;12.30;69.60
6964;DHT22;3522;50.856;7.278;2023-04-03T13:19:47;12.50;69.50
6964;DHT22;3522;50.856;7.278;2023-04-03T13:22:20;12.30;64.50
6964;DHT22;3522;50.856;7.278;2023-04-03T13:24:52;12.20;68.10
6964;DHT22;3522;50.856;7.278;2023-04-03T13:27:22;12.30;64.00
6964;DHT22;3522;50.856;7.278;2023-04-03T13:29:49;12.10;62.70
6964;DHT22;3522;50.856;7.278;2023-04-03T13:32:17;11.60;62.80
6964;DHT22;3522;50.856;7.278;2023-04-03T13:34:45;11.40;64.50
6964;DHT22;3522;50.856;7.278;2023-04-03T13:37:19;11.30;66.30
6964;DHT22;3522;50.856;7.278;2023-04-03T13:39:45;11.30;65.90
6964;DHT22;3522;50.856;7.278;2023-04-03T13:42:24;11.40;69.30
6964;DHT22;3522;50.856;7.278;2023-04-03T13:45:06;11.70;68.70
6964;DHT22;3522;50.856;7.278;2023-04-03T13:47:37;12.00;67.60
6964;DHT22;3522;50.856;7.278;2023-04-03T13:50:12;12.10;69.20
6964;DHT22;3522;50.856;7.278;2023-04-03T13:52:39;12.20;68.40
6964;DHT22;3522;50.856;7.278;2023-04-03T13:55:14;11.80;66.20
6964;DHT22;3522;50.856;7.278;2023-04-03T13:57:49;11.60;67.40
6964;DHT22;3522;50.856;7.278;2023-04-03T14:00:20;11.80;68.40
6964;DHT22;3522;50.856;7.278;2023-04-03T14:02:47;11.40;66.50
6964;DHT22;3522;50.856;7.278;2023-04-03T14:05:14;11.20;67.10
6964;DHT22;3522;50.856;7.278;2023-04-03T14:07:43;10.90;69.40
6964;DHT22;3522;50.856;7.278;2023-04-03T14:10:10;11.10;69.60
6964;DHT22;3522;50.856;7.278;2023-04-03T14:12:38;11.00;66.60
6964;DHT22;3522;50.856;7.278;2023-04-03T14:15:12;11.00;68.00
6964;DHT22;3522;50.856;7.278;2023-04-03T14:17:41;10.90;67.30
6964;DHT22;3522;50.856;7.278;2023-04-03T14:20:10;10.80;65.90
6964;DHT22;3522;50.856;7.278;2023-04-03T14:22:37;10.90;67.10
6964;DHT22;3522;50.856;7.278;2023-04-03T14:25:04;10.80;68.30
6964;DHT22;3522;50.856;7.278;2023-04-03T14:27:33;10.60;67.80
6964;DHT22;3522;50.856;7.278;2023-04-03T14:30:00;10.40;68.60
6964;DHT22;3522;50.856;7.278;2023-04-03T14:32:29;10.30;68.80
6964;DHT22;3522;50.856;7.278;2023-04-03T14:34:56;10.30;70.10
6964;DHT22;3522;50.856;7.278;2023-04-03T14:37:24;10.20;68.30
6964;DHT22;3522;50.856;7.278;2023-04-03T14:39:52;10.20;69.00
6964;DHT22;3522;50.856;7.278;2023-04-03T14:42:22;10.40;70.80
6964;DHT22;3522;50.856;7.278;2023-04-03T14:44:49;10.60;70.90
6964;DHT22;3522;50.856;7.278;2023-04-03T14:47:16;10.50;67.80
6964;DHT22;3522;50.856;7.278;2023-04-03T14:49:45;10.20;67.00
6964;DHT22;3522;50.856;7.278;2023-04-03T14:52:16;10.30;67.30
6964;DHT22;3522;50.856;7.278;2023-04-03T14:54:44;10.40;70.00
6964;DHT22;3522;50.856;7.278;2023-04-03T14:57:10;10.30;68.40
6964;DHT22;3522;50.856;7.278;2023-04-03T14:59:39;10.40;69.10
6964;DHT22;3522;50.856;7.278;2023-04-03T15:02:10;10.30;71.80
6964;DHT22;3522;50.856;7.278;2023-04-03T15:04:47;10.50;73.10
6964;DHT22;3522;50.856;7.278;2023-04-03T15:07:13;10.60;72.30
6964;DHT22;3522;50.856;7.278;2023-04-03T15:09:40;10.40;71.00
6964;DHT22;3522;50.856;7.278;2023-04-03T15:12:07;10.40;72.50
6964;DHT22;3522;50.856;7.278;2023-04-03T15:14:34;10.30;70.80
6964;DHT22;3522;50.856;7.278;2023-04-03T15:17:01;10.30;71.20
6964;DHT22;3522;50.856;7.278;2023-04-03T15:19:28;10.10;68.00
6964;DHT22;3522;50.856;7.278;2023-04-03T15:21:56;10.20;71.10
6964;DHT22;3522;50.856;7.278;2023-04-03T15:24:23;10.20;68.40
6964;DHT22;3522;50.856;7.278;2023-04-03T15:26:49;10.10;71.30
6964;DHT22;3522;50.856;7.278;2023-04-03T15:29:16;10.10;71.30
6964;DHT22;3522;50.856;7.278;2023-04-03T15:31:43;10.20;70.70
6964;DHT22;3522;50.856;7.278;2023-04-03T15:34:09;10.10;67.40
6964;DHT22;3522;50.856;7.278;2023-04-03T15:36:36;10.00;68.10
6964;DHT22;3522;50.856;7.278;2023-04-03T15:39:03;10.20;69.90
6964;DHT22;3522;50.856;7.278;2023-04-03T15:41:30;9.90;69.70
6964;DHT22;3522;50.856;7.278;2023-04-03T15:43:57;9.80;70.00
6964;DHT22;3522;50.856;7.278;2023-04-03T15:46:23;9.70;69.20
6964;DHT22;3522;50.856;7.278;2023-04-03T15:48:50;9.80;72.40
6964;DHT22;3522;50.856;7.278;2023-04-03T15:51:16;10.00;71.20
6964;DHT22;3522;50.856;7.278;2023-04-03T15:53:43;10.10;72.40
6964;DHT22;3522;50.856;7.278;2023-04-03T15:56:10;10.20;72.40
6964;DHT22;3522;50.856;7.278;2023-04-03T15:58:37;10.10;70.60
6964;DHT22;3522;50.856;7.278;2023-04-03T16:01:04;9.90;73.20
6964;DHT22;3522;50.856;7.278;2023-04-03T16:03:31;9.80;72.60
6964;DHT22;3522;50.856;7.278;2023-04-03T16:05:58;9.60;71.70
6964;DHT22;3522;50.856;7.278;2023-04-03T16:08:24;9.60;72.60
6964;DHT22;3522;50.856;7.278;2023-04-03T16:10:51;9.50;74.10
6964;DHT22;3522;50.856;7.278;2023-04-03T16:13:19;9.40;73.60
6964;DHT22;3522;50.856;7.278;2023-04-03T16:15:45;9.40;73.20
6964;DHT22;3522;50.856;7.278;2023-04-03T16:18:13;9.50;73.30
6964;DHT22;3522;50.856;7.278;2023-04-03T16:20:40;9.50;72.70
6964;DHT22;3522;50.856;7.278;2023-04-03T16:23:08;9.40;71.20
6964;DHT22;3522;50.856;7.278;2023-04-03T16:25:35;9.30;71.70
6964;DHT22;3522;50.856;7.278;2023-04-03T16:28:02;9.20;71.10
6964;DHT22;3522;50.856;7.278;2023-04-03T16:30:30;9.00;72.40
6964;DHT22;3522;50.856;7.278;2023-04-03T16:32:56;9.00;72.30